Time;durP1;ratioP1;P1;durP2;ratioP2;P2;SDS_P1;SDS_P2;PMS_P1;PMS_P2;Temp;Humidity;BMP_temperature;BMP_pressure;BME280_temperature;BME280_humidity;BME280_pressure;Samples;Min_cycle;Max_cycle;Signal;HPM_P1;HPM_P2
2022/10/27 00:01:03;;;;;;;22.80;14.43;;;13.70;1.00;;;;;;4919059;29;20190;-47
2022/10/27 00:03:29;;;;;;;29.37;14.80;;;13.70;1.00;;;;;;4925144;29;20194;-47
2022/10/27 00:05:54;;;;;;;19.13;12.80;;;13.70;1.00;;;;;;4932584;29;20660;-47
2022/10/27 00:08:21;;;;;;;20.07;13.20;;;13.70;1.00;;;;;;4934232;29;20539;-47
2022/10/27 00:11:02;;;;;;;22.30;12.50;;;13.60;1.00;;;;;;4920962;29;20197;-47
2022/10/27 00:13:28;;;;;;;16.83;13.20;;;13.60;1.00;;;;;;4932199;29;20438;-47
2022/10/27 00:16:03;;;;;;;21.07;14.47;;;13.60;1.00;;;;;;4928430;29;20581;-47
2022/10/27 00:18:29;;;;;;;19.50;14.30;;;13.60;1.00;;;;;;4933443;29;20453;-47
2022/10/27 00:21:05;;;;;;;24.33;14.30;;;13.60;1.00;;;;;;4930920;29;20450;-48
2022/10/27 00:23:31;;;;;;;19.30;13.20;;;13.50;1.00;;;;;;4932454;29;20217;-48
2022/10/27 00:25:58;;;;;;;26.00;14.50;;;13.40;1.00;;;;;;4928903;29;20872;-48
2022/10/27 00:28:25;;;;;;;22.67;13.17;;;13.40;1.00;;;;;;4931828;29;20469;-48
2022/10/27 00:31:21;;;;;;;22.70;13.60;;;13.30;1.00;;;;;;4932840;29;20975;-47
2022/10/27 00:33:48;;;;;;;23.90;13.77;;;13.30;1.00;;;;;;4928581;29;20462;-47
2022/10/27 00:36:16;;;;;;;22.23;14.80;;;13.20;1.00;;;;;;4931184;29;20832;-47
2022/10/27 00:38:43;;;;;;;22.63;15.03;;;13.20;1.00;;;;;;4933087;29;20437;-47
2022/10/27 00:41:23;;;;;;;19.07;13.40;;;13.20;1.00;;;;;;4932774;29;20434;-47
2022/10/27 00:43:49;;;;;;;25.10;14.60;;;13.20;1.00;;;;;;4932021;29;20485;-47
2022/10/27 00:46:20;;;;;;;25.20;13.93;;;13.30;1.00;;;;;;4931280;29;20450;-47
2022/10/27 00:48:50;;;;;;;31.00;15.43;;;13.30;1.00;;;;;;4931412;29;20241;-47
2022/10/27 00:51:17;;;;;;;23.40;13.73;;;13.20;1.00;;;;;;4918173;29;20442;-47
2022/10/27 00:53:45;;;;;;;21.03;14.73;;;13.20;1.00;;;;;;4929829;29;20492;-48
2022/10/27 00:56:11;;;;;;;21.53;14.33;;;13.10;1.00;;;;;;4935984;29;20441;-47
2022/10/27 00:58:37;;;;;;;18.47;13.30;;;13.10;1.00;;;;;;4937416;29;20484;-47
2022/10/27 01:01:03;;;;;;;24.77;14.70;;;13.00;1.00;;;;;;4932467;29;20484;-48
2022/10/27 01:03:29;;;;;;;22.53;14.80;;;13.00;1.00;;;;;;4935143;29;21147;-47
2022/10/27 01:05:56;;;;;;;25.70;14.47;;;13.00;1.00;;;;;;4935674;29;20554;-47
2022/10/27 01:08:23;;;;;;;22.13;14.30;;;13.00;1.00;;;;;;4935255;29;20474;-47
2022/10/27 01:10:49;;;;;;;27.77;16.07;;;13.00;1.00;;;;;;4928630;29;20477;-47
2022/10/27 01:13:16;;;;;;;22.00;15.10;;;13.00;1.00;;;;;;4934436;29;20533;-47
2022/10/27 01:16:13;;;;;;;28.80;15.60;;;13.10;1.00;;;;;;4936370;29;20473;-48
2022/10/27 01:18:57;;;;;;;24.30;14.17;;;13.10;1.00;;;;;;4933653;29;20485;-47
2022/10/27 01:21:46;;;;;;;27.00;15.20;;;13.10;1.00;;;;;;4936337;29;20446;-47
2022/10/27 01:24:44;;;;;;;24.97;14.47;;;13.10;1.00;;;;;;4934713;29;20454;-47
2022/10/27 01:27:27;;;;;;;24.17;14.60;;;13.10;1.00;;;;;;4935130;29;20445;-47
2022/10/27 01:30:32;;;;;;;19.77;14.17;;;13.20;1.00;;;;;;4933032;29;20486;-47
2022/10/27 01:33:06;;;;;;;22.77;14.90;;;13.20;1.00;;;;;;4939432;29;20452;-47
2022/10/27 01:35:46;;;;;;;22.20;14.67;;;13.20;1.00;;;;;;4934989;29;20919;-47
2022/10/27 01:38:21;;;;;;;26.13;14.80;;;13.30;1.00;;;;;;4934229;29;20456;-47
2022/10/27 01:41:12;;;;;;;20.83;13.97;;;13.30;1.00;;;;;;4932722;29;20492;-47
2022/10/27 01:43:39;;;;;;;26.83;15.67;;;13.30;1.00;;;;;;4936713;29;20430;-47
2022/10/27 01:46:07;;;;;;;24.80;13.90;;;13.40;1.00;;;;;;4935352;29;20450;-47
2022/10/27 01:48:35;;;;;;;24.67;16.00;;;13.40;1.00;;;;;;4934002;29;21005;-47
2022/10/27 01:51:01;;;;;;;25.67;14.47;;;13.50;1.00;;;;;;4935149;29;20444;-47
2022/10/27 01:53:31;;;;;;;21.63;14.87;;;13.50;1.00;;;;;;4934625;29;20937;-46
2022/10/27 01:56:05;;;;;;;20.07;13.40;;;13.50;1.00;;;;;;4935368;29;20690;-47
2022/10/27 01:58:46;;;;;;;25.70;13.90;;;13.40;1.00;;;;;;4929917;29;20437;-47
2022/10/27 02:01:14;;;;;;;26.80;14.67;;;13.40;1.00;;;;;;4932208;29;21080;-46
2022/10/27 02:04:00;;;;;;;23.67;14.30;;;13.40;1.00;;;;;;4935441;29;20441;-47
2022/10/27 02:06:30;;;;;;;21.40;13.93;;;13.40;1.00;;;;;;4933772;29;20442;-47
2022/10/27 02:09:27;;;;;;;25.40;14.10;;;13.40;1.00;;;;;;4926521;29;20473;-47
2022/10/27 02:11:54;;;;;;;24.13;14.33;;;13.40;1.00;;;;;;4935395;29;20970;-48
2022/10/27 02:14:21;;;;;;;25.80;13.87;;;13.40;1.00;;;;;;4935435;29;20438;-48
2022/10/27 02:16:52;;;;;;;22.47;14.40;;;13.40;1.00;;;;;;4930209;29;21000;-48
2022/10/27 02:19:25;;;;;;;26.13;13.50;;;13.40;1.00;;;;;;4933058;29;20461;-49
2022/10/27 02:21:53;;;;;;;21.00;14.10;;;13.40;1.00;;;;;;4935145;29;20461;-49
2022/10/27 02:24:21;;;;;;;22.80;14.23;;;13.40;1.00;;;;;;4934906;29;20755;-50
2022/10/27 02:26:56;;;;;;;25.60;13.23;;;13.40;1.00;;;;;;4934542;29;20449;-49
2022/10/27 02:29:37;;;;;;;20.17;13.77;;;13.30;1.00;;;;;;4932564;29;21089;-49
2022/10/27 02:32:05;;;;;;;28.63;13.80;;;13.30;1.00;;;;;;4935150;29;20793;-48
2022/10/27 02:34:32;;;;;;;21.80;14.50;;;13.30;1.00;;;;;;4930517;29;20491;-48
2022/10/27 02:36:58;;;;;;;18.93;13.70;;;13.30;1.00;;;;;;4935069;29;20469;-48
2022/10/27 02:39:24;;;;;;;23.50;13.80;;;13.30;1.00;;;;;;4934400;29;20449;-48
2022/10/27 02:41:49;;;;;;;20.93;13.43;;;13.40;1.00;;;;;;4934236;29;20446;-48
2022/10/27 02:44:15;;;;;;;22.33;14.30;;;13.40;1.00;;;;;;4933913;29;20190;-47
2022/10/27 02:46:41;;;;;;;21.13;14.10;;;13.40;1.00;;;;;;4932499;29;20319;-47
2022/10/27 02:49:06;;;;;;;23.67;13.17;;;13.50;1.00;;;;;;4934741;29;20214;-47
2022/10/27 02:51:32;;;;;;;27.50;12.77;;;13.40;1.00;;;;;;4933143;29;20222;-47
2022/10/27 02:53:58;;;;;;;23.40;13.17;;;13.40;1.00;;;;;;4921165;29;20621;-47
2022/10/27 02:56:23;;;;;;;21.40;12.73;;;13.30;1.00;;;;;;4935408;29;20214;-47
2022/10/27 02:58:49;;;;;;;26.17;14.20;;;13.30;1.00;;;;;;4932786;29;20190;-46
2022/10/27 03:01:14;;;;;;;22.20;13.63;;;13.30;1.00;;;;;;4933113;29;20203;-47
2022/10/27 03:03:40;;;;;;;24.20;14.23;;;13.30;1.00;;;;;;4933682;29;20657;-47
2022/10/27 03:06:06;;;;;;;20.97;13.10;;;13.40;1.00;;;;;;4934758;29;20521;-47
2022/10/27 03:08:31;;;;;;;19.93;12.67;;;13.40;1.00;;;;;;4930821;29;20245;-48
2022/10/27 03:10:57;;;;;;;27.20;13.93;;;13.30;1.00;;;;;;4921944;29;20230;-47
2022/10/27 03:13:22;;;;;;;22.30;13.20;;;13.40;1.00;;;;;;4931175;29;20198;-48
2022/10/27 03:15:48;;;;;;;19.03;12.40;;;13.30;1.00;;;;;;4934338;29;20191;-48
2022/10/27 03:18:14;;;;;;;22.03;12.57;;;13.30;1.00;;;;;;4932437;29;20566;-48
2022/10/27 03:20:39;;;;;;;23.47;13.50;;;13.30;1.00;;;;;;4933876;29;20243;-48
2022/10/27 03:23:05;;;;;;;21.20;13.53;;;13.30;1.00;;;;;;4933882;29;20191;-49
2022/10/27 03:25:31;;;;;;;18.27;12.77;;;13.30;1.00;;;;;;4933841;29;20194;-47
2022/10/27 03:27:56;;;;;;;22.93;13.67;;;13.30;1.00;;;;;;4932035;29;20242;-47
2022/10/27 03:30:22;;;;;;;22.30;13.87;;;13.30;1.00;;;;;;4932985;29;20201;-48
2022/10/27 03:32:49;;;;;;;21.00;14.00;;;13.20;1.00;;;;;;4933019;29;20191;-48
2022/10/27 03:35:16;;;;;;;24.30;13.80;;;13.20;1.00;;;;;;4933604;29;20186;-47
2022/10/27 03:37:42;;;;;;;20.80;12.63;;;13.30;1.00;;;;;;4931974;29;20783;-48
2022/10/27 03:40:08;;;;;;;21.03;11.97;;;13.20;1.00;;;;;;4934013;29;20446;-47
2022/10/27 03:42:34;;;;;;;24.33;13.57;;;13.20;1.00;;;;;;4932654;29;20543;-47
2022/10/27 03:44:59;;;;;;;20.90;12.80;;;13.20;1.00;;;;;;4933471;29;20438;-48
2022/10/27 03:47:25;;;;;;;21.63;12.80;;;13.20;1.00;;;;;;4931496;29;20938;-48
2022/10/27 03:49:50;;;;;;;25.87;13.60;;;13.10;1.00;;;;;;4929855;29;20210;-48
2022/10/27 03:52:16;;;;;;;19.63;14.57;;;13.10;1.00;;;;;;4934072;29;20190;-48
2022/10/27 03:54:42;;;;;;;20.37;13.90;;;13.10;1.00;;;;;;4933617;29;20235;-48
2022/10/27 03:57:11;;;;;;;26.43;14.47;;;13.10;1.00;;;;;;4932840;29;20297;-49
2022/10/27 03:59:37;;;;;;;26.47;13.90;;;13.10;1.00;;;;;;4931995;29;20539;-49
2022/10/27 04:02:02;;;;;;;24.03;14.40;;;13.10;1.00;;;;;;4931610;29;20465;-48
2022/10/27 04:04:28;;;;;;;19.67;14.47;;;13.10;1.00;;;;;;4932834;29;20202;-48
2022/10/27 04:06:54;;;;;;;19.07;13.77;;;13.10;1.00;;;;;;4933330;29;20269;-48
2022/10/27 04:09:19;;;;;;;22.10;13.37;;;13.10;1.00;;;;;;4932687;29;20210;-47
2022/10/27 04:11:45;;;;;;;29.10;13.90;;;13.10;1.00;;;;;;4933460;29;20186;-48
2022/10/27 04:14:10;;;;;;;19.00;13.07;;;13.20;1.00;;;;;;4933127;29;20249;-49
2022/10/27 04:16:36;;;;;;;23.50;13.80;;;13.10;1.00;;;;;;4925707;29;20182;-48
2022/10/27 04:19:01;;;;;;;25.20;13.83;;;13.10;1.00;;;;;;4930683;29;20194;-48
2022/10/27 04:21:27;;;;;;;27.03;14.40;;;13.10;1.00;;;;;;4933919;29;20206;-49
2022/10/27 04:23:53;;;;;;;22.60;13.50;;;13.10;1.00;;;;;;4931710;29;20186;-49
2022/10/27 04:26:18;;;;;;;21.70;14.60;;;13.10;1.00;;;;;;4933026;29;20186;-49
2022/10/27 04:28:44;;;;;;;23.17;14.90;;;13.10;1.00;;;;;;4930732;29;20214;-49
2022/10/27 04:31:09;;;;;;;28.70;14.77;;;13.00;1.00;;;;;;4930951;29;20194;-49
2022/10/27 04:33:35;;;;;;;27.90;14.77;;;13.00;1.00;;;;;;4918407;29;20202;-49
2022/10/27 04:36:01;;;;;;;22.30;13.80;;;12.90;1.00;;;;;;4932249;29;20226;-49
2022/10/27 04:38:26;;;;;;;29.10;15.23;;;12.90;1.00;;;;;;4931579;29;20194;-49
2022/10/27 04:40:52;;;;;;;24.63;14.47;;;12.90;1.00;;;;;;4926342;29;20255;-49
2022/10/27 04:43:17;;;;;;;24.57;14.67;;;12.90;1.00;;;;;;4925924;29;20284;-49
2022/10/27 04:45:43;;;;;;;23.53;14.10;;;12.90;1.00;;;;;;4932887;29;20194;-49
2022/10/27 04:48:08;;;;;;;23.67;14.23;;;12.90;1.00;;;;;;4927156;29;20235;-50
2022/10/27 04:50:34;;;;;;;21.87;14.53;;;12.80;1.00;;;;;;4927711;29;20210;-49
2022/10/27 04:53:02;;;;;;;21.10;14.57;;;12.80;1.00;;;;;;4933617;29;20289;-49
2022/10/27 04:55:29;;;;;;;24.20;15.53;;;12.80;1.00;;;;;;4925392;29;20190;-49
2022/10/27 04:57:55;;;;;;;19.67;14.07;;;12.70;1.00;;;;;;4930892;29;20457;-49
2022/10/27 05:00:22;;;;;;;27.77;14.67;;;12.80;1.00;;;;;;4930819;29;20442;-49
2022/10/27 05:02:55;;;;;;;24.23;15.20;;;12.80;1.00;;;;;;4931962;29;20178;-50
2022/10/27 05:05:22;;;;;;;30.30;15.57;;;12.70;1.00;;;;;;4932777;29;20414;-49
2022/10/27 05:07:54;;;;;;;24.30;14.77;;;12.70;1.00;;;;;;4930884;29;20445;-47
2022/10/27 05:10:21;;;;;;;24.53;15.10;;;12.70;1.00;;;;;;4925169;29;20446;-47
2022/10/27 05:12:46;;;;;;;25.17;15.43;;;12.70;1.00;;;;;;4932775;29;20455;-47
2022/10/27 05:15:12;;;;;;;23.37;15.40;;;12.80;1.00;;;;;;4933423;29;20765;-47
2022/10/27 05:17:38;;;;;;;21.00;14.33;;;12.80;1.00;;;;;;4931903;29;20217;-47
2022/10/27 05:20:04;;;;;;;29.90;15.67;;;12.70;1.00;;;;;;4932302;29;20562;-47
2022/10/27 05:22:30;;;;;;;25.67;15.00;;;12.70;1.00;;;;;;4932775;29;20206;-48
2022/10/27 05:24:56;;;;;;;29.27;15.47;;;12.60;1.00;;;;;;4932518;29;20920;-48
2022/10/27 05:27:21;;;;;;;26.23;14.60;;;12.50;1.00;;;;;;4929497;29;20442;-48
2022/10/27 05:29:47;;;;;;;21.40;14.80;;;12.50;1.00;;;;;;4927867;29;20217;-48
2022/10/27 05:32:13;;;;;;;23.80;14.60;;;12.40;1.00;;;;;;4931977;29;20248;-48
2022/10/27 05:34:38;;;;;;;26.10;15.97;;;12.40;1.00;;;;;;4931418;29;20187;-48
2022/10/27 05:37:04;;;;;;;30.37;16.03;;;12.40;1.00;;;;;;4928573;29;20186;-48
2022/10/27 05:39:29;;;;;;;24.43;16.07;;;12.40;1.00;;;;;;4931277;29;20205;-48
2022/10/27 05:41:55;;;;;;;24.60;15.17;;;12.40;1.00;;;;;;4934752;29;20202;-48
2022/10/27 05:44:20;;;;;;;24.67;14.97;;;12.40;1.00;;;;;;4936903;29;20183;-48
2022/10/27 05:46:46;;;;;;;25.57;15.77;;;12.40;1.00;;;;;;4933765;29;20549;-48
2022/10/27 05:49:12;;;;;;;22.73;15.40;;;12.40;1.00;;;;;;4934688;29;20229;-49
2022/10/27 05:51:37;;;;;;;27.10;16.07;;;12.40;1.00;;;;;;4935208;29;20205;-48
2022/10/27 05:54:03;;;;;;;27.67;13.43;;;12.30;1.00;;;;;;4934132;29;20245;-48
2022/10/27 05:56:29;;;;;;;25.10;15.23;;;12.30;1.00;;;;;;4934676;29;20292;-48
2022/10/27 05:58:54;;;;;;;30.63;16.30;;;12.30;1.00;;;;;;4930413;29;20716;-51
2022/10/27 06:01:20;;;;;;;30.80;16.17;;;12.20;1.00;;;;;;4927144;29;20198;-52
2022/10/27 06:03:46;;;;;;;25.90;14.37;;;12.20;1.00;;;;;;4932501;29;20191;-52
2022/10/27 06:06:11;;;;;;;29.20;15.60;;;12.20;1.00;;;;;;4935236;29;20221;-52
2022/10/27 06:08:37;;;;;;;33.13;16.57;;;12.20;1.00;;;;;;4924688;29;20210;-51
2022/10/27 06:11:03;;;;;;;32.17;16.37;;;12.20;1.00;;;;;;4933389;29;20205;-50
2022/10/27 06:13:29;;;;;;;29.53;16.70;;;12.10;1.00;;;;;;4935163;29;20579;-50
2022/10/27 06:15:54;;;;;;;27.57;16.17;;;12.10;1.00;;;;;;4931277;29;20199;-50
2022/10/27 06:18:20;;;;;;;27.63;15.50;;;12.10;1.00;;;;;;4930333;29;20978;-51
2022/10/27 06:20:46;;;;;;;25.03;15.00;;;12.00;1.00;;;;;;4933358;29;20194;-52
2022/10/27 06:23:12;;;;;;;22.37;14.67;;;11.90;1.00;;;;;;4933707;29;20614;-52
2022/10/27 06:25:38;;;;;;;33.10;14.37;;;11.90;1.00;;;;;;4931833;29;20210;-52
2022/10/27 06:28:03;;;;;;;26.43;15.40;;;11.90;1.00;;;;;;4922661;29;20195;-52
2022/10/27 06:30:29;;;;;;;33.63;17.17;;;11.80;1.00;;;;;;4926353;29;20270;-53
2022/10/27 06:32:55;;;;;;;32.97;16.10;;;11.80;1.00;;;;;;4933876;29;20196;-52
2022/10/27 06:35:21;;;;;;;26.10;15.50;;;11.80;1.00;;;;;;4930389;29;20298;-52
2022/10/27 06:37:46;;;;;;;22.47;15.20;;;11.80;1.00;;;;;;4933181;29;20189;-52
2022/10/27 06:40:14;;;;;;;30.63;16.47;;;11.80;1.00;;;;;;4932504;29;20212;-48
2022/10/27 06:42:40;;;;;;;22.67;14.40;;;11.80;1.00;;;;;;4933421;29;20229;-51
2022/10/27 06:45:07;;;;;;;31.70;15.10;;;11.80;1.00;;;;;;4933130;29;20453;-52
2022/10/27 06:47:33;;;;;;;23.10;14.87;;;11.80;1.00;;;;;;4933817;29;20494;-51
2022/10/27 06:49:59;;;;;;;26.93;16.33;;;11.80;1.00;;;;;;4930918;29;20504;-52
2022/10/27 06:52:25;;;;;;;29.13;16.07;;;11.80;1.00;;;;;;4929191;29;20442;-52
2022/10/27 06:54:51;;;;;;;27.73;15.50;;;11.90;1.00;;;;;;4930537;29;20733;-52
2022/10/27 06:57:17;;;;;;;26.97;16.77;;;11.90;1.00;;;;;;4933985;29;20443;-52
2022/10/27 06:59:42;;;;;;;21.20;15.77;;;11.90;1.00;;;;;;4929585;29;20190;-52
2022/10/27 07:02:13;;;;;;;28.70;16.23;;;12.00;1.00;;;;;;4933727;29;20199;-52
2022/10/27 07:04:39;;;;;;;27.33;15.17;;;12.00;1.00;;;;;;4933599;29;20242;-52
2022/10/27 07:07:05;;;;;;;33.07;15.97;;;12.00;1.00;;;;;;4934127;29;20848;-52
2022/10/27 07:09:30;;;;;;;32.63;16.50;;;12.10;1.00;;;;;;4933229;29;20257;-52
2022/10/27 07:11:56;;;;;;;30.00;15.37;;;12.10;1.00;;;;;;4934102;29;20202;-52
2022/10/27 07:14:22;;;;;;;24.00;15.53;;;12.10;1.00;;;;;;4931102;29;20195;-51
2022/10/27 07:16:47;;;;;;;32.03;17.17;;;12.20;1.00;;;;;;4931802;29;20246;-52
2022/10/27 07:19:13;;;;;;;29.10;16.77;;;12.20;1.00;;;;;;4924886;29;20191;-52
2022/10/27 07:21:40;;;;;;;28.10;17.30;;;12.30;1.00;;;;;;4933582;29;20293;-51
2022/10/27 07:24:06;;;;;;;37.73;17.80;;;12.40;1.00;;;;;;4935051;29;20201;-47
2022/10/27 07:26:32;;;;;;;28.13;17.00;;;12.40;1.00;;;;;;4933794;29;20465;-50
2022/10/27 07:28:57;;;;;;;28.70;18.03;;;12.50;1.00;;;;;;4933797;29;20470;-48
2022/10/27 07:31:23;;;;;;;24.20;16.70;;;12.60;1.00;;;;;;4934735;29;20688;-48
2022/10/27 07:33:48;;;;;;;28.03;17.90;;;12.60;1.00;;;;;;4929675;29;20186;-49
2022/10/27 07:36:14;;;;;;;30.80;17.70;;;12.70;1.00;;;;;;4923566;29;20195;-48
2022/10/27 07:38:40;;;;;;;35.30;17.60;;;12.70;1.00;;;;;;4935141;29;20194;-48
2022/10/27 07:41:05;;;;;;;27.83;17.30;;;12.70;1.00;;;;;;4934746;29;20719;-48
2022/10/27 07:43:31;;;;;;;31.73;19.07;;;12.80;1.00;;;;;;4933038;29;20205;-48
2022/10/27 07:45:57;;;;;;;34.57;18.53;;;12.90;1.00;;;;;;4934644;29;20187;-49
2022/10/27 07:48:23;;;;;;;33.67;18.20;;;13.00;1.00;;;;;;4934331;29;20321;-47
2022/10/27 07:50:50;;;;;;;30.70;17.17;;;13.20;1.70;;;;;;4934425;29;20450;-47
2022/10/27 07:53:16;;;;;;;29.77;16.77;;;13.50;10.20;;;;;;4930250;29;20205;-48
2022/10/27 07:55:42;;;;;;;28.53;16.10;;;13.60;8.70;;;;;;4932393;29;20454;-49
2022/10/27 07:58:16;;;;;;;28.63;16.60;;;13.60;1.00;;;;;;4931694;29;20204;-49
2022/10/27 08:00:50;;;;;;;26.37;16.80;;;13.60;1.00;;;;;;4922727;29;20311;-52
2022/10/27 08:03:24;;;;;;;30.97;15.53;;;13.60;1.00;;;;;;4933688;29;20425;-49
2022/10/27 08:05:50;;;;;;;30.23;15.23;;;13.70;1.00;;;;;;4934610;29;20422;-49
2022/10/27 08:08:17;;;;;;;29.77;16.73;;;13.70;1.00;;;;;;4933672;29;20470;-49
2022/10/27 08:10:44;;;;;;;23.90;15.50;;;13.80;1.00;;;;;;4934319;29;20438;-48
2022/10/27 08:13:10;;;;;;;25.67;15.80;;;13.90;1.00;;;;;;4921279;29;20426;-49
2022/10/27 08:15:37;;;;;;;22.73;15.67;;;13.90;1.00;;;;;;4916803;29;20459;-47
2022/10/27 08:18:04;;;;;;;26.80;15.37;;;13.90;1.00;;;;;;4930451;29;20478;-48
2022/10/27 08:20:48;;;;;;;23.60;15.40;;;14.00;1.00;;;;;;4923076;29;20443;-50
2022/10/27 08:23:16;;;;;;;26.20;16.70;;;14.10;1.00;;;;;;4923473;29;20448;-47
2022/10/27 08:25:42;;;;;;;21.13;13.87;;;14.30;1.00;;;;;;4933129;29;20458;-49
2022/10/27 08:28:10;;;;;;;22.10;15.20;;;14.40;1.00;;;;;;4933577;29;20469;-49
2022/10/27 08:30:36;;;;;;;24.60;14.00;;;14.60;1.00;;;;;;4933669;29;20187;-48
2022/10/27 08:33:03;;;;;;;19.80;13.67;;;14.70;1.00;;;;;;4933743;29;20956;-47
2022/10/27 08:35:31;;;;;;;38.43;15.00;;;14.80;1.00;;;;;;4932271;29;20209;-48
2022/10/27 08:38:01;;;;;;;21.57;14.37;;;14.90;1.00;;;;;;4934003;29;20438;-47
2022/10/27 08:41:05;;;;;;;25.77;13.57;;;14.90;1.00;;;;;;4933730;29;20430;-47
2022/10/27 08:43:49;;;;;;;26.83;13.70;;;15.00;99.90;;;;;;4933416;29;20819;-47
2022/10/27 08:46:42;;;;;;;26.10;13.73;;;15.10;99.90;;;;;;4932668;29;20450;-48
2022/10/27 08:49:50;;;;;;;20.83;13.87;;;15.10;99.90;;;;;;4932883;29;20517;-48
2022/10/27 08:52:40;;;;;;;21.67;13.50;;;15.20;99.90;;;;;;4933098;29;20553;-49
2022/10/27 08:55:12;;;;;;;20.27;12.53;;;15.30;99.90;;;;;;4932588;29;20514;-48
2022/10/27 08:57:40;;;;;;;16.77;12.03;;;15.50;99.90;;;;;;4930413;29;20452;-48
2022/10/27 09:00:11;;;;;;;20.83;12.90;;;15.50;99.90;;;;;;4926548;29;20435;-48
2022/10/27 09:03:03;;;;;;;18.40;12.17;;;15.70;95.20;;;;;;4917102;29;20437;-47
2022/10/27 09:05:29;;;;;;;22.17;12.83;;;15.80;14.10;;;;;;4922758;29;20506;-46
2022/10/27 09:08:25;;;;;;;27.80;13.17;;;15.90;1.00;;;;;;4914117;29;20804;-46
2022/10/27 09:11:27;;;;;;;21.67;11.77;;;15.90;1.00;;;;;;4931606;29;20203;-47
2022/10/27 09:14:17;;;;;;;19.97;11.30;;;16.00;1.00;;;;;;4961336;28;21257;-46
2022/10/27 09:17:20;;;;;;;17.10;11.23;;;16.10;1.00;;;;;;4921417;29;20469;-46
2022/10/27 09:20:15;;;;;;;19.00;12.20;;;16.20;1.00;;;;;;4919473;29;20466;-48
2022/10/27 09:22:41;;;;;;;14.90;10.40;;;16.20;1.00;;;;;;4930881;29;20481;-47
2022/10/27 09:25:17;;;;;;;19.17;10.80;;;16.30;99.90;;;;;;4935830;29;20450;-47
2022/10/27 09:27:44;;;;;;;14.43;9.83;;;16.40;99.90;;;;;;4932342;29;20445;-48
2022/10/27 09:30:12;;;;;;;18.70;11.57;;;16.40;99.90;;;;;;4935801;29;20928;-48
2022/10/27 09:32:41;;;;;;;18.93;10.63;;;16.50;99.90;;;;;;4931007;29;20532;-48
2022/10/27 09:35:12;;;;;;;18.70;11.63;;;16.60;99.90;;;;;;4929082;29;20799;-47
2022/10/27 09:37:40;;;;;;;17.33;10.07;;;16.70;99.90;;;;;;4932584;29;20477;-47
2022/10/27 09:40:13;;;;;;;18.57;10.00;;;16.90;99.90;;;;;;4927864;29;20445;-47
2022/10/27 09:42:39;;;;;;;13.20;9.57;;;17.10;47.30;;;;;;4925260;29;20940;-47
2022/10/27 09:45:22;;;;;;;18.03;10.50;;;17.30;72.60;;;;;;4926595;29;20441;-47
2022/10/27 09:47:55;;;;;;;22.93;10.57;;;17.60;1.00;;;;;;4923640;29;20486;-47
2022/10/27 09:50:35;;;;;;;19.30;10.40;;;17.70;1.00;;;;;;4935522;29;20438;-47
2022/10/27 09:53:02;;;;;;;12.33;8.90;;;17.80;1.00;;;;;;4930866;29;20429;-47
2022/10/27 09:55:49;;;;;;;19.53;9.30;;;18.00;99.90;;;;;;4936333;29;20457;-47
2022/10/27 09:58:19;;;;;;;17.17;9.10;;;18.20;99.90;;;;;;4925002;29;20549;-47
2022/10/27 10:00:55;;;;;;;12.73;8.77;;;18.30;1.00;;;;;;4934921;29;20513;-47
2022/10/27 10:03:21;;;;;;;16.40;8.30;;;18.30;1.00;;;;;;4930770;29;20461;-47
2022/10/27 10:05:58;;;;;;;13.10;8.63;;;18.40;99.90;;;;;;4921833;29;20817;-47
2022/10/27 10:08:26;;;;;;;11.00;8.47;;;18.50;1.00;;;;;;4928120;29;20492;-47
2022/10/27 10:11:16;;;;;;;15.53;8.47;;;18.40;99.90;;;;;;4933555;29;21347;-48
2022/10/27 10:13:58;;;;;;;13.83;8.10;;;18.40;99.90;;;;;;4934265;29;20929;-47
2022/10/27 10:16:27;;;;;;;15.23;8.33;;;18.50;99.90;;;;;;4934525;29;20993;-48
2022/10/27 10:19:10;;;;;;;12.70;7.93;;;18.60;1.00;;;;;;4934869;29;20449;-47
2022/10/27 10:21:56;;;;;;;16.17;7.77;;;18.80;99.90;;;;;;4934168;29;21086;-47
2022/10/27 10:24:26;;;;;;;8.17;6.90;;;18.90;99.90;;;;;;4936007;29;20722;-47
2022/10/27 10:26:58;;;;;;;13.10;7.10;;;19.00;1.00;;;;;;4932970;29;20436;-47
2022/10/27 10:29:47;;;;;;;17.90;7.70;;;19.00;1.00;;;;;;4935300;29;20513;-47
2022/10/27 10:32:22;;;;;;;18.83;8.30;;;18.90;1.00;;;;;;4935194;29;20530;-47
2022/10/27 10:34:51;;;;;;;9.83;6.70;;;19.00;70.00;;;;;;4935258;29;20494;-46
2022/10/27 10:37:44;;;;;;;9.23;6.93;;;19.10;82.40;;;;;;4933050;29;20588;-47
2022/10/27 10:40:12;;;;;;;13.43;6.53;;;19.10;1.00;;;;;;4930881;29;20458;-46
2022/10/27 10:42:48;;;;;;;13.20;7.33;;;19.20;1.00;;;;;;4925704;29;20455;-46
2022/10/27 10:45:22;;;;;;;13.73;7.17;;;19.80;1.00;;;;;;4929865;29;20496;-47
2022/10/27 10:47:55;;;;;;;12.77;6.77;;;20.80;1.00;;;;;;4928891;29;20531;-46
2022/10/27 10:50:23;;;;;;;15.83;5.67;;;21.50;1.00;;;;;;4927722;29;20450;-46
2022/10/27 10:52:57;;;;;;;13.80;6.23;;;22.20;1.00;;;;;;4929686;29;20464;-46
2022/10/27 10:55:32;;;;;;;13.00;5.40;;;22.70;1.00;;;;;;4931001;29;20975;-46
2022/10/27 10:57:58;;;;;;;17.17;5.63;;;23.00;1.00;;;;;;4932168;29;20484;-46
2022/10/27 11:00:26;;;;;;;10.40;5.87;;;23.30;1.00;;;;;;4932475;29;20477;-46
2022/10/27 11:03:02;;;;;;;12.07;5.00;;;23.30;1.00;;;;;;4927295;29;20446;-46
2022/10/27 11:05:31;;;;;;;9.63;4.83;;;23.20;1.00;;;;;;4926445;29;20443;-46
2022/10/27 11:07:58;;;;;;;9.87;4.10;;;23.00;1.00;;;;;;4928796;29;20438;-46
2022/10/27 11:10:32;;;;;;;11.03;5.07;;;22.80;1.00;;;;;;4929531;29;20442;-47
2022/10/27 11:13:03;;;;;;;12.73;4.90;;;22.60;1.00;;;;;;4932377;29;20465;-46
2022/10/27 11:15:35;;;;;;;14.47;5.07;;;22.50;1.00;;;;;;4934382;29;20936;-46
2022/10/27 11:18:25;;;;;;;12.23;4.60;;;22.20;1.00;;;;;;4933432;29;20438;-47
2022/10/27 11:21:18;;;;;;;15.53;4.90;;;22.00;1.00;;;;;;4932817;29;20446;-48
2022/10/27 11:23:50;;;;;;;10.60;5.10;;;21.80;1.00;;;;;;4931754;29;20956;-45
2022/10/27 11:26:21;;;;;;;8.17;4.60;;;21.70;1.00;;;;;;4933526;29;20776;-46
2022/10/27 11:28:48;;;;;;;11.03;4.37;;;22.10;1.00;;;;;;4934031;29;20553;-46
2022/10/27 11:31:46;;;;;;;6.80;3.70;;;23.00;1.00;;;;;;4932121;29;20488;-46
2022/10/27 11:34:51;;;;;;;15.47;4.77;;;24.30;1.00;;;;;;4932454;29;20545;-47
2022/10/27 11:37:38;;;;;;;6.10;3.83;;;25.10;1.00;;;;;;4928672;29;20477;-48
2022/10/27 11:40:22;;;;;;;9.27;4.37;;;25.70;1.00;;;;;;4932384;29;20465;-46
2022/10/27 11:43:14;;;;;;;8.43;3.90;;;26.30;1.00;;;;;;4931401;29;20549;-47
2022/10/27 11:45:42;;;;;;;12.50;4.10;;;26.90;1.00;;;;;;4934263;29;20944;-46
2022/10/27 11:48:20;;;;;;;14.60;4.10;;;26.80;1.00;;;;;;4933090;29;20490;-47
2022/10/27 11:50:52;;;;;;;12.00;3.70;;;26.90;1.00;;;;;;4927721;29;20446;-47
2022/10/27 11:53:18;;;;;;;11.93;4.33;;;27.20;1.00;;;;;;4918693;29;20411;-47
2022/10/27 11:55:47;;;;;;;8.73;3.97;;;27.00;1.00;;;;;;4921521;29;20445;-46
2022/10/27 11:58:43;;;;;;;6.23;3.47;;;26.90;1.00;;;;;;4929939;29;20182;-46
2022/10/27 12:01:23;;;;;;;7.23;3.43;;;26.90;1.00;;;;;;4934274;29;20825;-46
2022/10/27 12:04:30;;;;;;;9.30;3.93;;;26.60;1.00;;;;;;4933147;29;20476;-47
2022/10/27 12:06:56;;;;;;;9.80;4.00;;;26.00;1.00;;;;;;4929137;29;20428;-45
2022/10/27 12:09:36;;;;;;;6.67;3.60;;;25.60;1.00;;;;;;4918247;29;20508;-46
2022/10/27 12:12:36;;;;;;;9.23;3.40;;;25.40;1.00;;;;;;4934035;29;20550;-46
2022/10/27 12:15:17;;;;;;;5.93;3.20;;;24.90;1.00;;;;;;4930591;29;20503;-46
2022/10/27 12:17:58;;;;;;;12.83;4.00;;;24.60;1.00;;;;;;4933972;29;20426;-46
2022/10/27 12:20:44;;;;;;;6.57;3.70;;;24.30;1.00;;;;;;4934045;29;20402;-46
2022/10/27 12:23:18;;;;;;;10.27;3.70;;;24.10;1.00;;;;;;4933975;29;20415;-46
2022/10/27 12:26:09;;;;;;;7.10;3.70;;;23.90;1.00;;;;;;4933983;29;20472;-46
2022/10/27 12:28:35;;;;;;;12.10;3.17;;;23.70;1.00;;;;;;4933827;29;20454;-46
2022/10/27 12:31:04;;;;;;;6.13;3.23;;;23.30;1.00;;;;;;4931127;29;20438;-46
2022/10/27 12:33:38;;;;;;;8.80;3.30;;;22.90;1.00;;;;;;4933712;29;20453;-47
2022/10/27 12:36:19;;;;;;;11.43;3.70;;;22.70;1.00;;;;;;4933726;29;20413;-47
2022/10/27 12:38:56;;;;;;;7.03;3.40;;;22.70;1.00;;;;;;4931775;29;20422;-47
2022/10/27 12:41:33;;;;;;;4.77;2.90;;;23.00;1.00;;;;;;4931776;29;20480;-47
2022/10/27 12:44:14;;;;;;;6.33;3.00;;;23.20;1.00;;;;;;4929662;28;20481;-46
2022/10/27 12:47:08;;;;;;;7.17;3.90;;;23.20;1.00;;;;;;4933403;29;20442;-47
2022/10/27 12:50:04;;;;;;;20.23;3.50;;;23.10;1.00;;;;;;4932012;29;20474;-46
2022/10/27 12:52:34;;;;;;;5.50;3.30;;;23.00;1.00;;;;;;4935443;28;20442;-46
2022/10/27 12:55:26;;;;;;;6.03;3.20;;;22.80;1.00;;;;;;4926942;29;20505;-46
2022/10/27 12:58:02;;;;;;;4.83;2.60;;;22.60;1.00;;;;;;4934040;29;20529;-46
2022/10/27 13:00:34;;;;;;;5.10;2.93;;;22.40;1.00;;;;;;4936169;29;20449;-47